sensor_id;sensor_type;location;lat;lon;timestamp;P1;durP1;ratioP1;P2;durP2;ratioP2
45318;SDS011;31057;48.498;32.260;2023-08-24T00:02:23;14.05;;;9.10;;
45318;SDS011;31057;48.498;32.260;2023-08-24T00:04:25;18.48;;;9.75;;
45318;SDS011;31057;48.498;32.260;2023-08-24T00:08:28;18.08;;;10.82;;
45318;SDS011;31057;48.498;32.260;2023-08-24T00:12:32;24.85;;;12.27;;
45318;SDS011;31057;48.498;32.260;2023-08-24T00:14:35;20.05;;;11.60;;
45318;SDS011;31057;48.498;32.260;2023-08-24T00:16:37;17.88;;;11.27;;
45318;SDS011;31057;48.498;32.260;2023-08-24T00:18:40;19.55;;;9.85;;
45318;SDS011;31057;48.498;32.260;2023-08-24T00:22:44;20.60;;;10.75;;
45318;SDS011;31057;48.498;32.260;2023-08-24T00:24:45;25.58;;;10.63;;
45318;SDS011;31057;48.498;32.260;2023-08-24T00:26:47;22.67;;;10.40;;
45318;SDS011;31057;48.498;32.260;2023-08-24T00:30:52;17.50;;;9.73;;
45318;SDS011;31057;48.498;32.260;2023-08-24T00:32:53;19.27;;;10.15;;
45318;SDS011;31057;48.498;32.260;2023-08-24T00:36:57;16.58;;;10.07;;
45318;SDS011;31057;48.498;32.260;2023-08-24T00:38:59;15.52;;;9.95;;
45318;SDS011;31057;48.498;32.260;2023-08-24T00:41:04;17.30;;;10.90;;
45318;SDS011;31057;48.498;32.260;2023-08-24T00:43:06;19.25;;;9.20;;
45318;SDS011;31057;48.498;32.260;2023-08-24T00:45:08;23.50;;;11.73;;
45318;SDS011;31057;48.498;32.260;2023-08-24T00:47:11;22.13;;;10.45;;
45318;SDS011;31057;48.498;32.260;2023-08-24T00:51:15;20.38;;;10.43;;
45318;SDS011;31057;48.498;32.260;2023-08-24T00:57:22;21.05;;;10.15;;
45318;SDS011;31057;48.498;32.260;2023-08-24T00:59:24;15.85;;;9.73;;
45318;SDS011;31057;48.498;32.260;2023-08-24T01:03:28;18.92;;;9.95;;
45318;SDS011;31057;48.498;32.260;2023-08-24T01:07:35;14.60;;;9.60;;
45318;SDS011;31057;48.498;32.260;2023-08-24T01:09:40;15.00;;;9.95;;
45318;SDS011;31057;48.498;32.260;2023-08-24T01:11:45;15.23;;;9.85;;
45318;SDS011;31057;48.498;32.260;2023-08-24T01:16:36;16.35;;;10.73;;
45318;SDS011;31057;48.498;32.260;2023-08-24T01:18:42;16.50;;;9.85;;
45318;SDS011;31057;48.498;32.260;2023-08-24T01:20:45;17.02;;;10.82;;
45318;SDS011;31057;48.498;32.260;2023-08-24T01:22:58;19.48;;;10.05;;
45318;SDS011;31057;48.498;32.260;2023-08-24T01:25:06;20.60;;;10.38;;
45318;SDS011;31057;48.498;32.260;2023-08-24T01:27:16;18.90;;;10.73;;
45318;SDS011;31057;48.498;32.260;2023-08-24T01:29:20;23.75;;;11.52;;
45318;SDS011;31057;48.498;32.260;2023-08-24T01:31:22;18.95;;;10.85;;
45318;SDS011;31057;48.498;32.260;2023-08-24T01:33:26;18.73;;;11.07;;
45318;SDS011;31057;48.498;32.260;2023-08-24T01:35:28;18.10;;;10.07;;
45318;SDS011;31057;48.498;32.260;2023-08-24T01:39:39;17.40;;;10.43;;
45318;SDS011;31057;48.498;32.260;2023-08-24T01:41:51;17.67;;;10.02;;
45318;SDS011;31057;48.498;32.260;2023-08-24T01:43:54;16.83;;;9.27;;
45318;SDS011;31057;48.498;32.260;2023-08-24T01:45:58;18.88;;;10.18;;
45318;SDS011;31057;48.498;32.260;2023-08-24T01:48:04;19.50;;;10.32;;
45318;SDS011;31057;48.498;32.260;2023-08-24T01:50:06;23.02;;;9.48;;
45318;SDS011;31057;48.498;32.260;2023-08-24T01:52:09;14.98;;;9.82;;
45318;SDS011;31057;48.498;32.260;2023-08-24T01:54:11;17.70;;;10.35;;
45318;SDS011;31057;48.498;32.260;2023-08-24T01:56:15;17.08;;;10.02;;
45318;SDS011;31057;48.498;32.260;2023-08-24T01:58:17;14.02;;;9.30;;
45318;SDS011;31057;48.498;32.260;2023-08-24T02:00:19;22.80;;;10.48;;
45318;SDS011;31057;48.498;32.260;2023-08-24T02:04:24;18.90;;;10.27;;
45318;SDS011;31057;48.498;32.260;2023-08-24T02:06:26;20.55;;;9.95;;
45318;SDS011;31057;48.498;32.260;2023-08-24T02:08:30;19.13;;;11.00;;
45318;SDS011;31057;48.498;32.260;2023-08-24T02:10:32;25.90;;;11.40;;
45318;SDS011;31057;48.498;32.260;2023-08-24T02:12:34;16.58;;;10.38;;
45318;SDS011;31057;48.498;32.260;2023-08-24T02:16:38;14.70;;;9.43;;
45318;SDS011;31057;48.498;32.260;2023-08-24T02:18:41;16.20;;;10.02;;
45318;SDS011;31057;48.498;32.260;2023-08-24T02:20:43;14.60;;;10.02;;
45318;SDS011;31057;48.498;32.260;2023-08-24T02:22:45;21.42;;;10.90;;
45318;SDS011;31057;48.498;32.260;2023-08-24T02:24:47;15.40;;;10.10;;
45318;SDS011;31057;48.498;32.260;2023-08-24T02:28:51;14.02;;;9.10;;
45318;SDS011;31057;48.498;32.260;2023-08-24T02:30:53;20.90;;;10.88;;
45318;SDS011;31057;48.498;32.260;2023-08-24T02:32:55;20.98;;;9.57;;
45318;SDS011;31057;48.498;32.260;2023-08-24T02:34:57;17.63;;;9.75;;
45318;SDS011;31057;48.498;32.260;2023-08-24T02:39:01;16.67;;;10.10;;
45318;SDS011;31057;48.498;32.260;2023-08-24T02:41:04;19.00;;;9.60;;
45318;SDS011;31057;48.498;32.260;2023-08-24T02:43:07;21.17;;;9.90;;
45318;SDS011;31057;48.498;32.260;2023-08-24T02:45:09;20.42;;;11.10;;
45318;SDS011;31057;48.498;32.260;2023-08-24T02:49:13;17.17;;;10.80;;
45318;SDS011;31057;48.498;32.260;2023-08-24T02:51:15;22.77;;;11.38;;
45318;SDS011;31057;48.498;32.260;2023-08-24T02:53:17;22.40;;;10.73;;
45318;SDS011;31057;48.498;32.260;2023-08-24T02:55:19;23.98;;;11.43;;
45318;SDS011;31057;48.498;32.260;2023-08-24T02:59:23;19.00;;;12.33;;
45318;SDS011;31057;48.498;32.260;2023-08-24T03:01:24;32.55;;;16.83;;
45318;SDS011;31057;48.498;32.260;2023-08-24T03:03:28;22.92;;;13.85;;
45318;SDS011;31057;48.498;32.260;2023-08-24T03:05:30;26.27;;;14.90;;
45318;SDS011;31057;48.498;32.260;2023-08-24T03:07:32;18.67;;;12.90;;
45318;SDS011;31057;48.498;32.260;2023-08-24T03:09:34;22.52;;;14.38;;
45318;SDS011;31057;48.498;32.260;2023-08-24T03:11:36;22.20;;;12.13;;
45318;SDS011;31057;48.498;32.260;2023-08-24T03:13:38;30.45;;;15.02;;
45318;SDS011;31057;48.498;32.260;2023-08-24T03:17:42;24.67;;;12.27;;
45318;SDS011;31057;48.498;32.260;2023-08-24T03:19:44;31.77;;;15.45;;
45318;SDS011;31057;48.498;32.260;2023-08-24T03:23:48;29.52;;;16.45;;
45318;SDS011;31057;48.498;32.260;2023-08-24T03:25:50;24.40;;;14.02;;
45318;SDS011;31057;48.498;32.260;2023-08-24T03:27:52;21.65;;;12.55;;
45318;SDS011;31057;48.498;32.260;2023-08-24T03:29:54;26.60;;;13.82;;
45318;SDS011;31057;48.498;32.260;2023-08-24T03:31:56;22.00;;;13.45;;
45318;SDS011;31057;48.498;32.260;2023-08-24T03:36:00;22.65;;;13.02;;
45318;SDS011;31057;48.498;32.260;2023-08-24T03:38:04;23.35;;;12.75;;
45318;SDS011;31057;48.498;32.260;2023-08-24T03:40:06;23.42;;;12.63;;
45318;SDS011;31057;48.498;32.260;2023-08-24T03:42:09;23.35;;;11.68;;
45318;SDS011;31057;48.498;32.260;2023-08-24T03:44:11;21.40;;;11.05;;
45318;SDS011;31057;48.498;32.260;2023-08-24T03:46:13;24.35;;;11.65;;
45318;SDS011;31057;48.498;32.260;2023-08-24T03:48:15;24.60;;;12.32;;
45318;SDS011;31057;48.498;32.260;2023-08-24T03:50:17;28.52;;;11.65;;
45318;SDS011;31057;48.498;32.260;2023-08-24T03:54:21;22.50;;;11.55;;
45318;SDS011;31057;48.498;32.260;2023-08-24T03:56:24;18.77;;;11.55;;
45318;SDS011;31057;48.498;32.260;2023-08-24T03:58:26;21.90;;;11.02;;
45318;SDS011;31057;48.498;32.260;2023-08-24T04:00:28;26.50;;;10.77;;
45318;SDS011;31057;48.498;32.260;2023-08-24T04:02:30;22.92;;;12.43;;
45318;SDS011;31057;48.498;32.260;2023-08-24T04:06:34;26.33;;;11.15;;
45318;SDS011;31057;48.498;32.260;2023-08-24T04:08:37;24.20;;;11.57;;
45318;SDS011;31057;48.498;32.260;2023-08-24T04:12:41;19.23;;;10.68;;
45318;SDS011;31057;48.498;32.260;2023-08-24T04:16:45;18.45;;;10.75;;
45318;SDS011;31057;48.498;32.260;2023-08-24T04:20:51;20.08;;;11.23;;
45318;SDS011;31057;48.498;32.260;2023-08-24T04:22:54;26.08;;;12.43;;
45318;SDS011;31057;48.498;32.260;2023-08-24T04:24:57;19.10;;;11.38;;
45318;SDS011;31057;48.498;32.260;2023-08-24T04:26:59;22.65;;;12.02;;
45318;SDS011;31057;48.498;32.260;2023-08-24T04:29:02;21.95;;;12.10;;
45318;SDS011;31057;48.498;32.260;2023-08-24T04:31:04;17.17;;;11.38;;
45318;SDS011;31057;48.498;32.260;2023-08-24T04:33:07;23.80;;;13.23;;
45318;SDS011;31057;48.498;32.260;2023-08-24T04:39:13;23.40;;;12.77;;
45318;SDS011;31057;48.498;32.260;2023-08-24T04:43:17;17.02;;;12.30;;
45318;SDS011;31057;48.498;32.260;2023-08-24T04:45:20;22.55;;;13.45;;
45318;SDS011;31057;48.498;32.260;2023-08-24T04:47:22;21.52;;;15.20;;
45318;SDS011;31057;48.498;32.260;2023-08-24T04:49:24;20.25;;;13.40;;
45318;SDS011;31057;48.498;32.260;2023-08-24T04:51:26;25.63;;;14.48;;
45318;SDS011;31057;48.498;32.260;2023-08-24T04:53:29;27.98;;;14.05;;
45318;SDS011;31057;48.498;32.260;2023-08-24T04:55:31;20.10;;;12.93;;
45318;SDS011;31057;48.498;32.260;2023-08-24T04:59:34;25.92;;;14.18;;
45318;SDS011;31057;48.498;32.260;2023-08-24T05:01:36;34.90;;;13.75;;
45318;SDS011;31057;48.498;32.260;2023-08-24T05:05:40;26.10;;;12.68;;
45318;SDS011;31057;48.498;32.260;2023-08-24T05:07:42;32.05;;;14.10;;
45318;SDS011;31057;48.498;32.260;2023-08-24T05:11:46;28.95;;;12.77;;
45318;SDS011;31057;48.498;32.260;2023-08-24T05:13:48;29.63;;;15.45;;
45318;SDS011;31057;48.498;32.260;2023-08-24T05:17:52;33.58;;;17.83;;
45318;SDS011;31057;48.498;32.260;2023-08-24T05:19:58;31.10;;;15.63;;
45318;SDS011;31057;48.498;32.260;2023-08-24T05:22:00;29.77;;;18.83;;
45318;SDS011;31057;48.498;32.260;2023-08-24T05:24:02;30.98;;;17.23;;
45318;SDS011;31057;48.498;32.260;2023-08-24T05:26:05;36.10;;;16.00;;
45318;SDS011;31057;48.498;32.260;2023-08-24T05:28:07;31.17;;;16.73;;
45318;SDS011;31057;48.498;32.260;2023-08-24T05:30:10;36.17;;;17.55;;
45318;SDS011;31057;48.498;32.260;2023-08-24T05:32:12;33.67;;;19.02;;
45318;SDS011;31057;48.498;32.260;2023-08-24T05:34:14;33.35;;;20.85;;
45318;SDS011;31057;48.498;32.260;2023-08-24T05:38:18;31.13;;;19.10;;
45318;SDS011;31057;48.498;32.260;2023-08-24T05:40:20;28.35;;;18.48;;
45318;SDS011;31057;48.498;32.260;2023-08-24T05:44:24;28.30;;;17.60;;
45318;SDS011;31057;48.498;32.260;2023-08-24T05:46:26;30.83;;;18.13;;
45318;SDS011;31057;48.498;32.260;2023-08-24T05:50:30;37.10;;;17.17;;
45318;SDS011;31057;48.498;32.260;2023-08-24T05:54:36;26.45;;;16.92;;
45318;SDS011;31057;48.498;32.260;2023-08-24T05:56:38;31.52;;;16.65;;
45318;SDS011;31057;48.498;32.260;2023-08-24T06:00:42;35.33;;;19.35;;
45318;SDS011;31057;48.498;32.260;2023-08-24T06:04:45;24.13;;;17.27;;
45318;SDS011;31057;48.498;32.260;2023-08-24T06:06:48;25.75;;;17.70;;
45318;SDS011;31057;48.498;32.260;2023-08-24T06:08:50;32.38;;;18.92;;
45318;SDS011;31057;48.498;32.260;2023-08-24T06:10:51;30.17;;;15.63;;
45318;SDS011;31057;48.498;32.260;2023-08-24T06:14:55;23.20;;;14.60;;
45318;SDS011;31057;48.498;32.260;2023-08-24T06:16:58;19.70;;;14.30;;
45318;SDS011;31057;48.498;32.260;2023-08-24T06:21:01;27.92;;;14.00;;
45318;SDS011;31057;48.498;32.260;2023-08-24T06:27:10;23.67;;;13.15;;
45318;SDS011;31057;48.498;32.260;2023-08-24T06:29:12;17.20;;;13.63;;
45318;SDS011;31057;48.498;32.260;2023-08-24T06:33:17;13.88;;;10.02;;
45318;SDS011;31057;48.498;32.260;2023-08-24T06:35:19;24.98;;;11.20;;
45318;SDS011;31057;48.498;32.260;2023-08-24T06:39:23;27.27;;;10.85;;
45318;SDS011;31057;48.498;32.260;2023-08-24T06:41:26;19.17;;;10.02;;
45318;SDS011;31057;48.498;32.260;2023-08-24T06:45:30;16.85;;;10.93;;
45318;SDS011;31057;48.498;32.260;2023-08-24T06:47:32;16.25;;;10.43;;
45318;SDS011;31057;48.498;32.260;2023-08-24T06:49:34;19.35;;;10.63;;
45318;SDS011;31057;48.498;32.260;2023-08-24T06:53:38;17.88;;;10.40;;
45318;SDS011;31057;48.498;32.260;2023-08-24T06:55:40;19.45;;;9.73;;
45318;SDS011;31057;48.498;32.260;2023-08-24T06:57:47;18.33;;;9.55;;
45318;SDS011;31057;48.498;32.260;2023-08-24T06:59:52;12.73;;;9.90;;
45318;SDS011;31057;48.498;32.260;2023-08-24T07:03:56;15.50;;;8.55;;
45318;SDS011;31057;48.498;32.260;2023-08-24T07:08:00;11.70;;;8.27;;
45318;SDS011;31057;48.498;32.260;2023-08-24T07:10:04;12.93;;;8.00;;
45318;SDS011;31057;48.498;32.260;2023-08-24T07:12:08;12.05;;;7.50;;
45318;SDS011;31057;48.498;32.260;2023-08-24T07:14:11;8.60;;;7.10;;
45318;SDS011;31057;48.498;32.260;2023-08-24T07:18:15;12.10;;;7.20;;
45318;SDS011;31057;48.498;32.260;2023-08-24T07:20:17;12.88;;;6.78;;
45318;SDS011;31057;48.498;32.260;2023-08-24T07:22:19;12.45;;;6.70;;
45318;SDS011;31057;48.498;32.260;2023-08-24T07:24:21;11.75;;;7.15;;
45318;SDS011;31057;48.498;32.260;2023-08-24T07:26:45;11.25;;;7.13;;
45318;SDS011;31057;48.498;32.260;2023-08-24T07:30:48;11.75;;;6.80;;
45318;SDS011;31057;48.498;32.260;2023-08-24T07:32:50;14.70;;;7.07;;
45318;SDS011;31057;48.498;32.260;2023-08-24T07:34:53;9.07;;;6.30;;
45318;SDS011;31057;48.498;32.260;2023-08-24T07:36:55;11.60;;;6.60;;
45318;SDS011;31057;48.498;32.260;2023-08-24T07:38:57;9.55;;;6.55;;
45318;SDS011;31057;48.498;32.260;2023-08-24T07:40:59;11.00;;;6.47;;
45318;SDS011;31057;48.498;32.260;2023-08-24T07:43:01;10.52;;;6.88;;
45318;SDS011;31057;48.498;32.260;2023-08-24T07:45:03;12.20;;;7.50;;
45318;SDS011;31057;48.498;32.260;2023-08-24T07:47:06;12.15;;;7.15;;
45318;SDS011;31057;48.498;32.260;2023-08-24T07:49:08;9.98;;;7.20;;
45318;SDS011;31057;48.498;32.260;2023-08-24T07:51:10;12.05;;;6.53;;
45318;SDS011;31057;48.498;32.260;2023-08-24T07:53:12;11.32;;;7.32;;
45318;SDS011;31057;48.498;32.260;2023-08-24T07:55:15;10.18;;;7.00;;
45318;SDS011;31057;48.498;32.260;2023-08-24T07:57:17;8.18;;;5.80;;
45318;SDS011;31057;48.498;32.260;2023-08-24T07:59:19;10.95;;;5.93;;
45318;SDS011;31057;48.498;32.260;2023-08-24T08:01:21;12.15;;;6.28;;
45318;SDS011;31057;48.498;32.260;2023-08-24T08:03:23;11.60;;;5.85;;
45318;SDS011;31057;48.498;32.260;2023-08-24T08:05:25;11.32;;;5.88;;
45318;SDS011;31057;48.498;32.260;2023-08-24T08:07:28;12.43;;;6.32;;
45318;SDS011;31057;48.498;32.260;2023-08-24T08:09:30;11.35;;;7.07;;
45318;SDS011;31057;48.498;32.260;2023-08-24T08:11:31;6.70;;;4.90;;
45318;SDS011;31057;48.498;32.260;2023-08-24T08:13:34;10.60;;;5.82;;
45318;SDS011;31057;48.498;32.260;2023-08-24T08:15:36;8.00;;;4.25;;
45318;SDS011;31057;48.498;32.260;2023-08-24T08:17:39;8.18;;;3.70;;
45318;SDS011;31057;48.498;32.260;2023-08-24T08:19:43;9.75;;;3.88;;
45318;SDS011;31057;48.498;32.260;2023-08-24T08:21:45;5.97;;;3.00;;
45318;SDS011;31057;48.498;32.260;2023-08-24T08:23:47;6.63;;;3.40;;
45318;SDS011;31057;48.498;32.260;2023-08-24T08:25:49;8.02;;;3.15;;
45318;SDS011;31057;48.498;32.260;2023-08-24T08:27:51;7.50;;;3.05;;
45318;SDS011;31057;48.498;32.260;2023-08-24T08:29:54;9.80;;;3.13;;
45318;SDS011;31057;48.498;32.260;2023-08-24T08:31:56;6.95;;;2.90;;
45318;SDS011;31057;48.498;32.260;2023-08-24T08:33:58;8.57;;;2.63;;
45318;SDS011;31057;48.498;32.260;2023-08-24T08:36:00;6.35;;;3.47;;
45318;SDS011;31057;48.498;32.260;2023-08-24T08:38:02;10.25;;;3.60;;
45318;SDS011;31057;48.498;32.260;2023-08-24T08:40:04;4.85;;;2.72;;
45318;SDS011;31057;48.498;32.260;2023-08-24T08:42:11;7.72;;;3.20;;
45318;SDS011;31057;48.498;32.260;2023-08-24T08:44:14;6.90;;;3.10;;
45318;SDS011;31057;48.498;32.260;2023-08-24T08:46:17;7.85;;;3.25;;
45318;SDS011;31057;48.498;32.260;2023-08-24T08:48:20;5.15;;;2.75;;
45318;SDS011;31057;48.498;32.260;2023-08-24T08:50:22;9.50;;;3.20;;
45318;SDS011;31057;48.498;32.260;2023-08-24T08:52:25;10.00;;;3.05;;
45318;SDS011;31057;48.498;32.260;2023-08-24T08:54:27;9.00;;;3.38;;
45318;SDS011;31057;48.498;32.260;2023-08-24T08:56:29;4.63;;;3.13;;
45318;SDS011;31057;48.498;32.260;2023-08-24T08:58:31;11.52;;;2.70;;
45318;SDS011;31057;48.498;32.260;2023-08-24T09:00:35;7.38;;;2.78;;
45318;SDS011;31057;48.498;32.260;2023-08-24T09:02:38;6.28;;;2.72;;
45318;SDS011;31057;48.498;32.260;2023-08-24T09:04:43;6.40;;;2.95;;
45318;SDS011;31057;48.498;32.260;2023-08-24T09:06:46;5.93;;;2.67;;
45318;SDS011;31057;48.498;32.260;2023-08-24T09:08:49;6.82;;;3.50;;
45318;SDS011;31057;48.498;32.260;2023-08-24T09:10:52;6.85;;;3.05;;
45318;SDS011;31057;48.498;32.260;2023-08-24T09:12:54;4.35;;;2.97;;
45318;SDS011;31057;48.498;32.260;2023-08-24T09:14:56;6.50;;;3.13;;
45318;SDS011;31057;48.498;32.260;2023-08-24T09:16:58;8.70;;;3.15;;
45318;SDS011;31057;48.498;32.260;2023-08-24T09:19:00;6.18;;;3.30;;
45318;SDS011;31057;48.498;32.260;2023-08-24T09:21:11;7.80;;;3.10;;
45318;SDS011;31057;48.498;32.260;2023-08-24T09:23:18;8.15;;;3.03;;
45318;SDS011;31057;48.498;32.260;2023-08-24T09:25:23;10.10;;;3.13;;
45318;SDS011;31057;48.498;32.260;2023-08-24T09:27:26;7.38;;;3.30;;
45318;SDS011;31057;48.498;32.260;2023-08-24T09:29:28;10.98;;;3.22;;
45318;SDS011;31057;48.498;32.260;2023-08-24T09:31:38;4.75;;;3.13;;
45318;SDS011;31057;48.498;32.260;2023-08-24T09:33:42;7.82;;;3.03;;
45318;SDS011;31057;48.498;32.260;2023-08-24T09:35:50;7.53;;;3.13;;
45318;SDS011;31057;48.498;32.260;2023-08-24T09:38:21;7.57;;;3.17;;
45318;SDS011;31057;48.498;32.260;2023-08-24T09:42:29;6.18;;;3.15;;
45318;SDS011;31057;48.498;32.260;2023-08-24T09:44:33;7.47;;;3.22;;
45318;SDS011;31057;48.498;32.260;2023-08-24T09:46:35;4.80;;;3.60;;
45318;SDS011;31057;48.498;32.260;2023-08-24T09:48:41;7.82;;;3.22;;
45318;SDS011;31057;48.498;32.260;2023-08-24T09:50:46;10.45;;;4.80;;
45318;SDS011;31057;48.498;32.260;2023-08-24T09:52:49;5.03;;;3.33;;
45318;SDS011;31057;48.498;32.260;2023-08-24T09:54:55;7.78;;;3.60;;
45318;SDS011;31057;48.498;32.260;2023-08-24T09:56:57;6.97;;;3.20;;
45318;SDS011;31057;48.498;32.260;2023-08-24T09:59:03;10.15;;;4.03;;
45318;SDS011;31057;48.498;32.260;2023-08-24T10:01:20;7.43;;;3.30;;
45318;SDS011;31057;48.498;32.260;2023-08-24T10:03:24;8.32;;;3.33;;
45318;SDS011;31057;48.498;32.260;2023-08-24T10:05:27;5.70;;;3.17;;
45318;SDS011;31057;48.498;32.260;2023-08-24T10:07:45;6.28;;;2.97;;
45318;SDS011;31057;48.498;32.260;2023-08-24T10:12:04;6.30;;;3.47;;
45318;SDS011;31057;48.498;32.260;2023-08-24T10:14:27;5.43;;;3.55;;
45318;SDS011;31057;48.498;32.260;2023-08-24T10:16:32;4.60;;;3.22;;
45318;SDS011;31057;48.498;32.260;2023-08-24T10:18:37;5.70;;;3.58;;
45318;SDS011;31057;48.498;32.260;2023-08-24T10:20:39;6.75;;;3.90;;
45318;SDS011;31057;48.498;32.260;2023-08-24T10:22:41;9.23;;;4.72;;
45318;SDS011;31057;48.498;32.260;2023-08-24T10:24:44;7.68;;;3.65;;
45318;SDS011;31057;48.498;32.260;2023-08-24T10:26:52;4.85;;;3.38;;
45318;SDS011;31057;48.498;32.260;2023-08-24T10:28:56;7.20;;;3.92;;
45318;SDS011;31057;48.498;32.260;2023-08-24T10:30:59;6.18;;;3.60;;
45318;SDS011;31057;48.498;32.260;2023-08-24T10:33:02;6.72;;;3.33;;
45318;SDS011;31057;48.498;32.260;2023-08-24T10:35:06;9.80;;;4.00;;
45318;SDS011;31057;48.498;32.260;2023-08-24T10:37:09;9.38;;;3.42;;
45318;SDS011;31057;48.498;32.260;2023-08-24T10:39:11;9.63;;;3.70;;
45318;SDS011;31057;48.498;32.260;2023-08-24T10:41:15;11.13;;;3.50;;
45318;SDS011;31057;48.498;32.260;2023-08-24T10:43:16;8.10;;;3.85;;
45318;SDS011;31057;48.498;32.260;2023-08-24T10:45:18;11.15;;;3.85;;
45318;SDS011;31057;48.498;32.260;2023-08-24T10:47:25;4.13;;;3.30;;
45318;SDS011;31057;48.498;32.260;2023-08-24T10:49:30;9.32;;;4.60;;
45318;SDS011;31057;48.498;32.260;2023-08-24T10:51:42;6.13;;;3.60;;
45318;SDS011;31057;48.498;32.260;2023-08-24T10:53:46;4.80;;;3.15;;
45318;SDS011;31057;48.498;32.260;2023-08-24T10:55:59;15.98;;;4.25;;
45318;SDS011;31057;48.498;32.260;2023-08-24T10:58:12;9.02;;;4.47;;
45318;SDS011;31057;48.498;32.260;2023-08-24T11:00:20;5.60;;;3.80;;
45318;SDS011;31057;48.498;32.260;2023-08-24T11:02:24;7.18;;;3.47;;
45318;SDS011;31057;48.498;32.260;2023-08-24T11:04:26;7.03;;;3.70;;
45318;SDS011;31057;48.498;32.260;2023-08-24T11:06:28;11.38;;;4.50;;
45318;SDS011;31057;48.498;32.260;2023-08-24T11:08:46;6.13;;;3.22;;
45318;SDS011;31057;48.498;32.260;2023-08-24T11:10:49;6.45;;;3.58;;
45318;SDS011;31057;48.498;32.260;2023-08-24T11:13:35;8.18;;;3.72;;
45318;SDS011;31057;48.498;32.260;2023-08-24T11:17:45;8.85;;;3.63;;
45318;SDS011;31057;48.498;32.260;2023-08-24T11:20:07;5.32;;;3.60;;
45318;SDS011;31057;48.498;32.260;2023-08-24T11:22:09;8.93;;;3.40;;
45318;SDS011;31057;48.498;32.260;2023-08-24T11:24:12;6.97;;;3.70;;
45318;SDS011;31057;48.498;32.260;2023-08-24T11:26:15;6.53;;;3.17;;
45318;SDS011;31057;48.498;32.260;2023-08-24T11:28:18;4.78;;;3.30;;
45318;SDS011;31057;48.498;32.260;2023-08-24T11:30:21;6.97;;;3.53;;
45318;SDS011;31057;48.498;32.260;2023-08-24T11:32:23;8.02;;;3.10;;
45318;SDS011;31057;48.498;32.260;2023-08-24T11:34:25;7.63;;;3.17;;
45318;SDS011;31057;48.498;32.260;2023-08-24T11:36:27;8.63;;;3.28;;
45318;SDS011;31057;48.498;32.260;2023-08-24T11:38:36;5.22;;;3.10;;
45318;SDS011;31057;48.498;32.260;2023-08-24T11:40:39;9.68;;;3.65;;
45318;SDS011;31057;48.498;32.260;2023-08-24T11:42:41;10.63;;;3.80;;
45318;SDS011;31057;48.498;32.260;2023-08-24T11:46:50;7.10;;;3.53;;
45318;SDS011;31057;48.498;32.260;2023-08-24T11:48:52;7.10;;;3.97;;
45318;SDS011;31057;48.498;32.260;2023-08-24T11:50:54;5.65;;;3.53;;
45318;SDS011;31057;48.498;32.260;2023-08-24T11:52:56;5.57;;;3.70;;
45318;SDS011;31057;48.498;32.260;2023-08-24T11:54:58;6.40;;;3.88;;
45318;SDS011;31057;48.498;32.260;2023-08-24T11:57:00;7.40;;;4.32;;
45318;SDS011;31057;48.498;32.260;2023-08-24T11:59:02;6.90;;;4.22;;
45318;SDS011;31057;48.498;32.260;2023-08-24T12:01:04;6.90;;;3.92;;
45318;SDS011;31057;48.498;32.260;2023-08-24T12:03:07;7.18;;;4.32;;
45318;SDS011;31057;48.498;32.260;2023-08-24T12:05:22;6.18;;;3.97;;
45318;SDS011;31057;48.498;32.260;2023-08-24T12:07:25;6.20;;;4.03;;
45318;SDS011;31057;48.498;32.260;2023-08-24T12:09:32;14.50;;;11.15;;
45318;SDS011;31057;48.498;32.260;2023-08-24T12:11:35;11.30;;;3.97;;
45318;SDS011;31057;48.498;32.260;2023-08-24T12:13:38;5.63;;;3.30;;
45318;SDS011;31057;48.498;32.260;2023-08-24T12:15:45;6.38;;;3.60;;
45318;SDS011;31057;48.498;32.260;2023-08-24T12:17:48;5.10;;;3.65;;
45318;SDS011;31057;48.498;32.260;2023-08-24T12:20:00;5.85;;;3.92;;
45318;SDS011;31057;48.498;32.260;2023-08-24T12:22:06;8.65;;;3.92;;
45318;SDS011;31057;48.498;32.260;2023-08-24T12:24:13;9.02;;;6.60;;
45318;SDS011;31057;48.498;32.260;2023-08-24T12:26:18;12.40;;;6.10;;
45318;SDS011;31057;48.498;32.260;2023-08-24T12:28:20;10.90;;;4.35;;
45318;SDS011;31057;48.498;32.260;2023-08-24T12:30:22;9.75;;;4.25;;
45318;SDS011;31057;48.498;32.260;2023-08-24T12:32:24;8.18;;;4.03;;
45318;SDS011;31057;48.498;32.260;2023-08-24T12:34:31;7.20;;;4.18;;
45318;SDS011;31057;48.498;32.260;2023-08-24T12:36:33;7.38;;;3.38;;
45318;SDS011;31057;48.498;32.260;2023-08-24T12:38:37;4.22;;;3.33;;
45318;SDS011;31057;48.498;32.260;2023-08-24T12:40:41;5.70;;;3.75;;
45318;SDS011;31057;48.498;32.260;2023-08-24T12:42:43;7.80;;;4.00;;
45318;SDS011;31057;48.498;32.260;2023-08-24T12:44:45;10.65;;;4.95;;
45318;SDS011;31057;48.498;32.260;2023-08-24T12:46:47;7.00;;;4.30;;
45318;SDS011;31057;48.498;32.260;2023-08-24T12:48:49;9.98;;;6.00;;
45318;SDS011;31057;48.498;32.260;2023-08-24T12:50:54;8.38;;;6.22;;
45318;SDS011;31057;48.498;32.260;2023-08-24T12:52:56;8.27;;;4.68;;
45318;SDS011;31057;48.498;32.260;2023-08-24T12:55:01;6.30;;;3.90;;
45318;SDS011;31057;48.498;32.260;2023-08-24T12:57:04;8.52;;;3.75;;
45318;SDS011;31057;48.498;32.260;2023-08-24T12:59:07;6.75;;;3.33;;
45318;SDS011;31057;48.498;32.260;2023-08-24T13:01:10;5.65;;;3.45;;
45318;SDS011;31057;48.498;32.260;2023-08-24T13:03:13;6.15;;;3.30;;
45318;SDS011;31057;48.498;32.260;2023-08-24T13:05:16;6.88;;;3.55;;
45318;SDS011;31057;48.498;32.260;2023-08-24T13:07:18;5.57;;;3.85;;
45318;SDS011;31057;48.498;32.260;2023-08-24T13:09:20;9.88;;;4.20;;
45318;SDS011;31057;48.498;32.260;2023-08-24T13:11:22;5.88;;;3.55;;
45318;SDS011;31057;48.498;32.260;2023-08-24T13:13:24;8.10;;;3.45;;
45318;SDS011;31057;48.498;32.260;2023-08-24T13:15:26;11.20;;;3.22;;
45318;SDS011;31057;48.498;32.260;2023-08-24T13:17:31;6.90;;;3.65;;
45318;SDS011;31057;48.498;32.260;2023-08-24T13:19:34;7.18;;;4.40;;
45318;SDS011;31057;48.498;32.260;2023-08-24T13:21:35;8.65;;;4.97;;
45318;SDS011;31057;48.498;32.260;2023-08-24T13:23:37;6.45;;;3.50;;
45318;SDS011;31057;48.498;32.260;2023-08-24T13:25:40;5.93;;;3.80;;
45318;SDS011;31057;48.498;32.260;2023-08-24T13:27:42;5.88;;;3.53;;
45318;SDS011;31057;48.498;32.260;2023-08-24T13:29:44;6.03;;;3.67;;
45318;SDS011;31057;48.498;32.260;2023-08-24T13:31:46;7.00;;;3.72;;
45318;SDS011;31057;48.498;32.260;2023-08-24T13:33:48;6.05;;;4.30;;
45318;SDS011;31057;48.498;32.260;2023-08-24T13:35:50;8.82;;;6.03;;
45318;SDS011;31057;48.498;32.260;2023-08-24T13:37:52;10.55;;;5.28;;
45318;SDS011;31057;48.498;32.260;2023-08-24T13:39:54;5.65;;;4.15;;
45318;SDS011;31057;48.498;32.260;2023-08-24T13:41:56;9.00;;;5.45;;
45318;SDS011;31057;48.498;32.260;2023-08-24T13:43:58;5.63;;;3.88;;
45318;SDS011;31057;48.498;32.260;2023-08-24T13:46:00;11.85;;;9.35;;
45318;SDS011;31057;48.498;32.260;2023-08-24T13:48:04;5.50;;;4.15;;
45318;SDS011;31057;48.498;32.260;2023-08-24T13:50:07;4.00;;;3.10;;
45318;SDS011;31057;48.498;32.260;2023-08-24T13:52:10;4.32;;;3.10;;
45318;SDS011;31057;48.498;32.260;2023-08-24T13:54:15;4.68;;;2.97;;
45318;SDS011;31057;48.498;32.260;2023-08-24T13:56:17;4.65;;;3.13;;